.
WxDataArchive / Data Records for 2008-05-28
2008-05-27 May 2008 2008-05-29

Data Records for Wednesday, 28 May 2008

Time	Temp	Chill	HIndex	Humid	Dewpt	 Wind 	HiWind	WindDir	Rain 	Barom 
-----	----	-----	------	-----	-----	------	------	-------	-----	----- 
00:00	49.4	49.4	49.4	71	40.4	1	2	90	0.00	30.247 
00:05	49.2	49.2	49.2	70	39.8	1	3	68	0.00	30.247 
00:10	49.1	49.1	49.1	69	39.4	2	4	90	0.00	30.248 
00:15	49.1	49.1	49.1	69	39.4	2	4	90	0.00	30.247 
00:20	49.1	49.1	49.1	69	39.4	2	4	90	0.00	30.250 
00:25	48.9	48.9	48.9	69	39.2	2	6	90	0.00	30.257 
00:30	48.9	48.9	48.9	69	39.2	2	4	90	0.00	30.253 
00:35	48.8	48.8	48.8	69	39.1	2	5	90	0.00	30.247 
00:40	48.6	48.6	48.6	68	38.5	2	6	90	0.00	30.249 
00:45	48.6	48.6	48.6	68	38.5	2	6	90	0.00	30.254 
00:50	48.5	48.5	48.5	68	38.4	3	5	90	0.00	30.252 
00:55	48.3	48.3	48.3	67	37.9	2	4	90	0.00	30.255 
01:00	48.3	48.3	48.3	68	38.2	2	4	90	0.00	30.255 
01:05	48.2	48.2	48.2	67	37.8	2	6	90	0.00	30.251 
01:10	48.2	48.2	48.2	67	37.8	2	6	112	0.00	30.252 
01:15	48.0	48.0	48.0	68	37.9	2	3	90	0.00	30.252 
01:20	48.0	48.0	48.0	68	37.9	2	6	90	0.00	30.252 
01:25	47.9	47.9	47.9	67	37.5	2	5	90	0.00	30.252 
01:30	47.9	47.9	47.9	67	37.5	2	5	90	0.00	30.253 
01:35	47.7	47.7	47.7	68	37.7	2	5	112	0.00	30.252 
01:40	47.7	47.7	47.7	68	37.7	1	5	90	0.00	30.255 
01:45	47.6	47.6	47.6	69	37.9	2	5	90	0.00	30.257 
01:50	47.4	47.4	47.4	69	37.7	1	4	135	0.00	30.255 
01:55	47.3	47.3	47.3	70	38.0	2	5	90	0.00	30.257 
02:00	47.1	47.1	47.1	70	37.8	2	4	112	0.00	30.258 
02:05	47.0	47.0	47.0	70	37.7	1	3	112	0.00	30.255 
02:10	46.8	46.8	46.8	71	37.9	1	4	112	0.00	30.258 
02:15	46.7	46.7	46.7	72	38.2	1	3	112	0.00	30.256 
02:20	46.5	46.5	46.5	72	38.0	1	4	112	0.00	30.254 
02:25	46.4	46.4	46.4	72	37.9	2	7	135	0.00	30.261 
02:30	46.2	46.2	46.2	71	37.3	1	4	90	0.00	30.261 
02:35	46.1	46.1	46.1	71	37.2	1	4	68	0.00	30.262 
02:40	45.8	45.8	45.8	70	36.6	1	5	112	0.00	30.263 
02:45	45.7	45.7	45.7	69	36.1	1	4	112	0.00	30.265 
02:50	45.4	45.4	45.4	69	35.8	2	6	112	0.00	30.267 
02:55	45.2	45.2	45.2	69	35.6	2	5	90	0.00	30.266 
03:00	45.1	45.1	45.1	70	35.9	1	5	112	0.00	30.268 
03:05	44.6	44.6	44.6	71	35.8	1	4	90	0.00	30.273 
03:10	44.5	44.5	44.5	71	35.7	1	4	135	0.00	30.275 
03:15	44.3	44.3	44.3	70	35.1	1	5	112	0.00	30.280 
03:20	44.2	44.2	44.2	70	35.0	1	5	90	0.00	30.277 
03:25	43.9	43.9	43.9	70	34.8	1	4	112	0.00	30.282 
03:30	43.8	43.8	43.8	70	34.7	2	5	112	0.00	30.285 
03:35	43.5	43.5	43.5	70	34.4	1	3	112	0.00	30.286 
03:40	43.3	43.3	43.3	71	34.5	0	3	90	0.00	30.285 
03:45	43.1	43.1	43.1	72	34.7	1	3	90	0.00	30.283 
03:50	42.9	42.9	42.9	72	34.5	0	3	90	0.00	30.285 
03:55	42.6	42.6	42.6	73	34.6	0	2	90	0.00	30.287 
04:00	42.2	42.2	42.2	72	33.8	0	2	112	0.00	30.288 
04:05	41.9	41.9	41.9	69	32.5	0	2	112	0.00	30.290 
04:10	41.6	41.6	41.6	68	31.8	0	3	135	0.00	30.287 
04:15	41.2	41.2	41.2	67	31.1	0	2	112	0.00	30.287 
04:20	41.1	41.1	41.1	66	30.6	1	4	90	0.00	30.290 
04:25	41.1	41.1	41.1	66	30.6	1	4	22	0.00	30.290 
04:30	40.9	40.9	40.9	65	30.1	1	4	112	0.00	30.289 
04:35	40.8	40.8	40.8	66	30.3	0	3	112	0.00	30.289 
04:40	40.6	40.6	40.6	67	30.5	1	4	112	0.00	30.289 
04:45	40.5	40.5	40.5	68	30.8	0	3	112	0.00	30.290 
04:50	40.3	40.3	40.3	68	30.6	1	5	68	0.00	30.292 
04:55	40.2	40.2	40.2	69	30.9	1	5	112	0.00	30.296 
05:00	40.2	40.2	40.2	69	30.9	1	6	90	0.00	30.297 
05:05	40.1	40.1	40.1	69	30.8	1	7	90	0.00	30.300 
05:10	39.9	39.9	39.9	71	31.3	0	2	90	0.00	30.299 
05:15	39.6	39.6	39.6	73	31.7	0	3	112	0.00	30.305 
05:20	39.5	39.5	39.5	73	31.6	1	3	90	0.00	30.307 
05:25	39.3	39.3	39.3	72	31.0	1	4	112	0.00	30.308 
05:30	39.2	39.2	39.2	73	31.3	0	3	45	0.00	30.309 
05:35	39.2	39.2	39.2	73	31.3	0	1	45	0.00	30.311 
05:40	39.1	39.1	39.1	74	31.5	0	3	45	0.00	30.315 
05:45	39.1	39.1	39.1	74	31.5	0	3	112	0.00	30.323 
05:50	39.1	39.1	39.1	75	31.9	0	1	112	0.00	30.325 
05:55	39.1	39.1	39.1	75	31.9	0	3	112	0.00	30.325 
06:00	39.1	39.1	39.1	75	31.9	0	2	112	0.00	30.326 
06:05	39.2	39.2	39.2	75	32.0	0	2	112	0.00	30.329 
06:10	39.3	39.3	39.3	74	31.7	0	2	112	0.00	30.334 
06:15	39.6	39.6	39.6	73	31.7	1	3	112	0.00	30.335 
06:20	40.2	40.2	40.2	72	31.9	0	2	112	0.00	30.336 
06:25	41.1	41.1	41.1	71	32.4	0	2	112	0.00	30.337 
06:30	41.8	41.8	41.8	69	32.4	1	3	112	0.00	30.338 
06:35	42.3	42.3	42.3	67	32.1	1	3	112	0.00	30.338 
06:40	42.8	42.8	42.8	66	32.2	1	5	112	0.00	30.341 
06:45	43.2	43.2	43.2	66	32.6	0	2	90	0.00	30.345 
06:50	43.5	43.5	43.5	65	32.5	1	3	90	0.00	30.348 
06:55	43.9	43.9	43.9	65	32.9	1	2	90	0.00	30.347 
07:00	44.2	44.2	44.2	65	33.2	1	5	112	0.00	30.349 
07:05	44.5	44.5	44.5	65	33.5	1	5	135	0.00	30.352 
07:10	44.8	44.8	44.8	64	33.4	2	6	112	0.00	30.355 
07:15	45.2	45.2	45.2	64	33.8	2	4	112	0.00	30.357 
07:20	45.4	45.4	45.4	63	33.6	2	6	112	0.00	30.361 
07:25	45.7	45.7	45.7	63	33.8	1	6	135	0.00	30.358 
07:30	46.2	46.2	46.2	61	33.5	2	9	112	0.00	30.357 
07:35	46.4	46.4	46.4	63	34.5	3	11	112	0.00	30.360 
07:40	46.8	46.8	46.8	63	34.9	1	4	90	0.00	30.362 
07:45	47.4	47.4	47.4	61	34.6	2	5	112	0.00	30.364 
07:50	47.9	47.9	47.9	60	34.7	1	5	90	0.00	30.358 
07:55	48.0	48.0	48.0	58	33.9	3	10	90	0.00	30.357 
08:00	47.7	46.2	47.7	60	34.5	4	17	90	0.00	30.354 
08:05	48.0	48.0	48.0	59	34.4	3	10	112	0.00	30.358 
08:10	48.2	46.8	48.2	59	34.6	4	8	112	0.00	30.362 
08:15	48.5	48.5	48.5	58	34.4	3	10	90	0.00	30.361 
08:20	48.9	48.9	48.9	58	34.8	2	6	112	0.00	30.361 
08:25	49.2	49.2	49.2	58	35.1	3	10	112	0.00	30.365 
08:30	49.2	49.2	49.2	56	34.2	3	6	90	0.00	30.365 
08:35	49.5	49.5	49.5	55	34.0	3	10	90	0.00	30.364 
08:40	49.6	49.6	49.6	55	34.1	3	10	90	0.00	30.360 
08:45	49.5	48.3	49.5	58	35.3	4	9	112	0.00	30.358 
08:50	49.8	48.6	49.8	55	34.3	4	11	90	0.00	30.356 
08:55	50.2	50.2	50.2	56	35.1	3	5	90	0.00	30.354 
09:00	50.4	50.4	50.4	55	34.8	4	16	112	0.00	30.352 
09:05	50.8	50.8	50.8	54	34.8	3	9	112	0.00	30.352 
09:10	51.4	51.4	51.4	57	36.7	2	5	90	0.00	30.352 
09:15	52.0	52.0	52.0	54	35.9	2	7	112	0.00	30.351 
09:20	51.9	51.9	51.9	53	35.3	3	7	90	0.00	30.352 
09:25	52.0	52.0	52.0	54	35.9	3	9	112	0.00	30.351 
09:30	52.5	52.5	52.5	52	35.4	2	5	90	0.00	30.350 
09:35	52.5	52.5	52.5	51	34.9	4	13	90	0.00	30.348 
09:40	52.6	52.6	52.6	51	35.0	3	7	90	0.00	30.350 
09:45	53.2	53.2	53.2	52	36.0	2	9	112	0.00	30.349 
09:50	53.8	53.8	53.8	51	36.1	3	12	112	0.00	30.348 
09:55	54.2	54.2	54.2	51	36.5	3	6	112	0.00	30.346 
10:00	54.2	54.2	54.2	52	37.0	3	7	112	0.00	30.345 
10:05	54.2	54.2	54.2	48	34.9	3	9	90	0.00	30.346 
10:10	54.4	54.4	54.4	48	35.1	3	8	112	0.00	30.345 
10:15	54.8	54.8	54.8	49	36.0	3	6	112	0.00	30.346 
10:20	55.1	55.1	55.1	47	35.2	3	7	112	0.00	30.344 
10:25	55.6	55.6	55.6	49	36.7	2	5	90	0.00	30.341 
10:30	56.3	56.3	56.3	47	36.3	2	7	112	0.00	30.338 
10:35	56.9	56.9	56.9	48	37.4	2	6	112	0.00	30.339 
10:40	56.7	56.7	56.7	50	38.3	2	6	112	0.00	30.337 
10:45	57.3	57.3	57.3	43	35.0	3	7	112	0.00	30.335 
10:50	57.6	57.6	57.6	46	37.0	2	6	112	0.00	30.333 
10:55	57.8	57.8	57.8	43	35.5	4	9	112	0.00	30.332 
11:00	57.3	57.3	57.3	44	35.6	3	7	112	0.00	30.334 
11:05	57.6	57.6	57.6	48	38.1	3	6	112	0.00	30.332 
11:10	58.3	58.3	58.3	44	36.5	2	6	68	0.00	30.331 
11:15	58.4	58.4	58.4	43	36.0	3	9	112	0.00	30.331 
11:20	59.0	59.0	59.0	42	35.9	3	10	90	0.00	30.328 
11:25	59.3	59.3	59.3	41	35.6	3	8	90	0.00	30.329 
11:30	59.5	59.5	59.5	40	35.2	3	6	112	0.00	30.327 
11:35	59.9	59.9	59.9	39	34.9	2	4	90	0.00	30.327 
11:40	60.2	60.2	60.2	39	35.2	1	4	90	0.00	30.320 
11:45	60.1	60.1	60.1	36	33.1	3	9	112	0.00	30.318 
11:50	59.9	59.9	59.9	41	36.1	3	8	112	0.00	30.316 
11:55	60.7	60.7	60.7	37	34.3	2	7	112	0.00	30.312 
12:00	60.5	60.5	60.5	38	34.8	3	6	112	0.00	30.311 
12:05	60.7	60.7	60.7	37	34.3	2	7	112	0.00	30.312 
12:10	60.7	60.7	60.7	37	34.3	3	11	112	0.00	30.313 
12:15	61.0	61.0	61.0	34	32.4	3	9	90	0.00	30.307 
12:20	61.5	61.5	61.5	37	35.0	3	8	90	0.00	30.304 
12:25	61.3	61.3	61.3	38	35.5	4	10	112	0.00	30.300 
12:30	62.0	62.0	62.0	38	36.1	2	5	90	0.00	30.301 
12:35	62.3	62.3	62.3	39	37.0	2	9	90	0.00	30.301 
12:40	62.4	62.4	62.4	35	34.4	1	4	112	0.00	30.300 
12:45	62.9	62.9	62.9	41	38.8	1	8	90	0.00	30.298 
12:50	62.7	62.7	62.7	34	33.9	3	9	112	0.00	30.299 
12:55	62.9	62.9	62.9	35	34.8	1	5	112	0.00	30.299 
13:00	63.5	63.5	63.5	33	33.9	2	7	112	0.00	30.297 
13:05	63.2	63.2	63.2	36	35.8	2	6	112	0.00	30.298 
13:10	63.5	63.5	63.5	35	35.4	2	9	112	0.00	30.297 
13:15	63.7	63.7	63.7	32	33.3	2	5	112	0.00	30.296 
13:20	63.9	63.9	63.9	38	37.8	3	9	90	0.00	30.296 
13:25	64.2	64.2	64.2	32	33.7	2	7	112	0.00	30.295 
13:30	64.3	64.3	64.3	37	37.5	2	7	90	0.00	30.293 
13:35	64.8	64.8	64.8	35	36.5	3	7	112	0.00	30.292 
13:40	65.3	65.3	65.3	33	35.5	2	6	90	0.00	30.291 
13:45	65.5	65.5	65.5	29	32.4	1	3	90	0.00	30.285 
13:50	65.2	65.2	65.2	31	33.8	1	5	90	0.00	30.286 
13:55	65.5	65.5	65.5	30	33.2	2	6	112	0.00	30.281 
14:00	65.8	65.8	65.8	35	37.4	2	6	112	0.00	30.279 
14:05	65.6	65.6	65.6	27	30.7	3	7	112	0.00	30.281 
14:10	65.6	65.6	65.6	31	34.1	2	6	112	0.00	30.280 
14:15	66.1	66.1	66.1	31	34.6	2	5	112	0.00	30.277 
14:20	66.4	66.4	66.4	28	32.3	1	3	112	0.00	30.271 
14:25	66.6	66.6	66.6	29	33.3	2	6	112	0.00	30.271 
14:30	66.8	66.8	66.8	30	34.4	1	5	112	0.00	30.270 
14:35	67.1	67.1	67.1	28	32.9	2	6	90	0.00	30.269 
14:40	67.1	67.1	67.1	27	32.0	2	5	112	0.00	30.271 
14:45	66.8	66.8	66.8	29	33.5	2	7	90	0.00	30.267 
14:50	66.8	66.8	66.8	29	33.5	3	7	135	0.00	30.266 
14:55	66.8	66.8	66.8	30	34.4	1	7	90	0.00	30.266 
15:00	67.3	67.3	67.3	31	35.6	1	4	90	0.00	30.265 
15:05	67.1	67.1	67.1	30	34.6	3	7	90	0.00	30.267 
15:10	67.3	67.3	67.3	28	33.1	2	7	90	0.00	30.267 
15:15	67.8	67.8	67.8	31	36.1	1	3	112	0.00	30.264 
15:20	67.9	67.9	67.9	29	34.5	2	7	90	0.00	30.263 
15:25	67.8	67.8	67.8	28	33.5	2	7	90	0.00	30.262 
15:30	67.8	67.8	67.8	30	35.2	2	7	135	0.00	30.260 
15:35	67.8	67.8	67.8	27	32.6	1	5	90	0.00	30.259 
15:40	67.9	67.9	67.9	28	33.6	0	2	90	0.00	30.253 
15:45	67.8	67.8	67.8	30	35.2	1	5	112	0.00	30.251 
15:50	68.1	68.1	68.1	24	29.9	2	6	90	0.00	30.251 
15:55	68.1	68.1	68.1	27	32.9	1	4	112	0.00	30.250 
16:00	68.3	68.3	68.3	29	34.8	1	5	90	0.00	30.249 
16:05	68.3	68.3	68.3	24	30.1	3	7	90	0.00	30.251 
16:10	68.4	68.4	68.4	26	32.2	1	4	90	0.00	30.249 
16:15	68.6	68.6	68.6	26	32.3	1	5	112	0.00	30.249 
16:20	68.3	68.3	68.3	28	33.9	0	3	68	0.00	30.249 
16:25	68.3	68.3	68.3	25	31.1	1	4	112	0.00	30.249 
16:30	68.1	68.1	68.1	25	30.9	1	3	112	0.00	30.246 
16:35	68.1	68.1	68.1	23	28.9	0	2	270	0.00	30.246 
16:40	68.1	68.1	68.1	26	31.9	1	4	90	0.00	30.248 
16:45	68.1	68.1	68.1	26	31.9	1	4	112	0.00	30.246 
16:50	67.9	67.9	67.9	27	32.7	1	3	112	0.00	30.244 
16:55	67.6	67.6	67.6	23	28.5	1	3	112	0.00	30.240 
17:00	67.6	67.6	67.6	27	32.4	2	5	112	0.00	30.238 
17:05	67.3	67.3	67.3	25	30.3	1	4	68	0.00	30.239 
17:10	67.1	67.1	67.1	25	30.1	2	6	112	0.00	30.239 
17:15	66.9	66.9	66.9	29	33.6	2	5	112	0.00	30.237 
17:20	66.9	66.9	66.9	25	29.9	2	3	90	0.00	30.237 
17:25	66.8	66.8	66.8	24	28.8	1	4	90	0.00	30.237 
17:30	66.8	66.8	66.8	25	29.8	1	2	112	0.00	30.235 
17:35	66.8	66.8	66.8	26	30.8	1	4	112	0.00	30.234 
17:40	66.6	66.6	66.6	26	30.6	1	3	112	0.00	30.232 
17:45	66.6	66.6	66.6	25	29.7	2	5	112	0.00	30.229 
17:50	66.4	66.4	66.4	25	29.5	2	5	90	0.00	30.228 
17:55	66.1	66.1	66.1	24	28.3	2	5	90	0.00	30.227 
18:00	66.0	66.0	66.0	27	31.1	1	4	90	0.00	30.226 
18:05	65.8	65.8	65.8	24	28.0	1	3	90	0.00	30.220 
18:10	65.8	65.8	65.8	24	28.0	2	4	90	0.00	30.223 
18:15	65.6	65.6	65.6	25	28.8	1	5	112	0.00	30.225 
18:20	65.5	65.5	65.5	24	27.8	2	5	112	0.00	30.223 
18:25	65.5	65.5	65.5	24	27.8	2	4	90	0.00	30.223 
18:30	65.3	65.3	65.3	25	28.6	1	4	90	0.00	30.226 
18:35	65.2	65.2	65.2	24	27.5	1	3	90	0.00	30.228 
18:40	65.2	65.2	65.2	26	29.5	1	5	112	0.00	30.225 
18:45	65.0	65.0	65.0	26	29.3	1	3	112	0.00	30.225 
18:50	64.8	64.8	64.8	25	28.2	1	4	90	0.00	30.227 
18:55	64.7	64.7	64.7	26	29.0	1	3	112	0.00	30.228 
19:00	64.5	64.5	64.5	25	27.9	1	3	112	0.00	30.223 
19:05	64.3	64.3	64.3	27	29.6	1	2	112	0.00	30.219 
19:10	64.2	64.2	64.2	26	28.6	0	2	112	0.00	30.221 
19:15	63.9	63.9	63.9	27	29.3	1	3	112	0.00	30.222 
19:20	63.7	63.7	63.7	28	30.0	1	3	112	0.00	30.225 
19:25	63.2	63.2	63.2	27	28.7	1	2	112	0.00	30.225 
19:30	62.9	62.9	62.9	28	29.3	1	4	90	0.00	30.230 
19:35	62.6	62.6	62.6	28	29.0	0	2	90	0.00	30.231 
19:40	62.1	62.1	62.1	28	28.6	1	3	90	0.00	30.231 
19:45	61.8	61.8	61.8	30	30.0	0	3	90	0.00	30.229 
19:50	61.5	61.5	61.5	28	28.1	0	2	90	0.00	30.228 
19:55	61.2	61.2	61.2	30	29.5	0	1	90	0.00	30.226 
20:00	60.7	60.7	60.7	31	29.9	0	0	---	0.00	30.227 
20:05	60.2	60.2	60.2	31	29.5	1	2	90	0.00	30.224 
20:10	59.9	59.9	59.9	31	29.2	0	3	90	0.00	30.222 
20:15	59.6	59.6	59.6	33	30.5	0	2	90	0.00	30.220 
20:20	59.2	59.2	59.2	34	30.8	0	2	90	0.00	30.223 
20:25	58.9	58.9	58.9	35	31.3	1	3	90	0.00	30.222 
20:30	58.4	58.4	58.4	35	30.9	0	2	90	0.00	30.221 
20:35	58.1	58.1	58.1	37	32.0	0	1	90	0.00	30.223 
20:40	57.8	57.8	57.8	37	31.7	0	1	90	0.00	30.227 
20:45	57.5	57.5	57.5	37	31.4	0	1	90	0.00	30.226 
20:50	57.0	57.0	57.0	37	31.0	0	2	90	0.00	30.230 
20:55	56.9	56.9	56.9	38	31.6	1	2	90	0.00	30.228 
21:00	56.6	56.6	56.6	38	31.3	0	1	90	0.00	30.227 
21:05	56.3	56.3	56.3	39	31.7	0	1	90	0.00	30.225 
21:10	56.0	56.0	56.0	39	31.4	1	2	90	0.00	30.224 
21:15	55.9	55.9	55.9	39	31.3	0	3	90	0.00	30.223 
21:20	55.6	55.6	55.6	40	31.7	0	1	90	0.00	30.222 
21:25	55.3	55.3	55.3	41	32.0	0	1	90	0.00	30.227 
21:30	55.1	55.1	55.1	42	32.4	0	1	90	0.00	30.229 
21:35	54.8	54.8	54.8	43	32.7	0	0	---	0.00	30.230 
21:40	54.4	54.4	54.4	45	33.5	0	1	90	0.00	30.232 
21:45	53.9	53.9	53.9	45	33.1	0	0	---	0.00	30.232 
21:50	53.5	53.5	53.5	45	32.7	0	0	---	0.00	30.232 
21:55	53.1	53.1	53.1	47	33.4	0	1	90	0.00	30.234 
22:00	52.9	52.9	52.9	47	33.2	0	3	90	0.00	30.234 
22:05	53.1	53.1	53.1	47	33.4	0	1	90	0.00	30.231 
22:10	53.1	53.1	53.1	47	33.4	0	1	90	0.00	30.232 
22:15	53.1	53.1	53.1	47	33.4	0	1	90	0.00	30.233 
22:20	52.9	52.9	52.9	48	33.7	0	1	90	0.00	30.233 
22:25	52.8	52.8	52.8	48	33.7	0	1	90	0.00	30.230 
22:30	52.6	52.6	52.6	49	34.0	0	1	90	0.00	30.226 
22:35	52.3	52.3	52.3	50	34.2	0	1	90	0.00	30.228 
22:40	52.0	52.0	52.0	50	33.9	0	1	90	0.00	30.226 
22:45	51.7	51.7	51.7	51	34.2	0	1	90	0.00	30.228 
22:50	51.4	51.4	51.4	52	34.4	0	0	---	0.00	30.229 
22:55	51.0	51.0	51.0	52	34.0	0	0	---	0.00	30.229 
23:00	50.5	50.5	50.5	54	34.5	0	0	---	0.00	30.231 
23:05	49.9	49.9	49.9	54	33.9	0	0	---	0.00	30.230 
23:10	49.5	49.5	49.5	55	34.0	0	0	---	0.00	30.231 
23:15	49.1	49.1	49.1	57	34.5	0	0	---	0.00	30.232 
23:20	48.6	48.6	48.6	58	34.5	0	0	---	0.00	30.232 
23:25	48.2	48.2	48.2	58	34.1	0	0	---	0.00	30.234 
23:30	47.9	47.9	47.9	59	34.3	0	0	---	0.00	30.232 
23:35	47.7	47.7	47.7	60	34.5	0	0	---	0.00	30.231 
23:40	47.4	47.4	47.4	61	34.6	0	0	---	0.00	30.226 
23:45	47.1	47.1	47.1	62	34.8	0	0	---	0.00	30.222 
23:50	46.7	46.7	46.7	63	34.8	0	0	---	0.00	30.223 
23:55	46.4	46.4	46.4	63	34.5	0	0	---	0.00	30.222 

CoCoRaHS
IN-AL-39
A2 Web Hosting
Creative Commons License
GoDaddy
Look for:

loaded 2017-10-16 18:26:08 • last modified 2010-11-18 10:43:29
Privacy PolicyDisclaimer
• wx.awcolley.com is powered by PmWiki v.2002016 •
• all content (unless otherwise noted) © 2017 A W Colley